Time;durP1;ratioP1;P1;durP2;ratioP2;P2;SDS_P1;SDS_P2;PMS_P1;PMS_P2;Temp;Humidity;BMP_temperature;BMP_pressure;BME280_temperature;BME280_humidity;BME280_pressure;Samples;Min_cycle;Max_cycle;Signal;HPM_P1;HPM_P2
2023/03/14 00:01:57;;;;;;;50.53;36.90;;;;;;;;;;5093696;28;20039;-75
2023/03/14 00:04:22;;;;;;;68.18;41.88;;;;;;;;;;5096735;28;20042;-75
2023/03/14 00:06:49;;;;;;;169.68;96.70;;;;;;;;;;5091437;28;20044;-75
2023/03/14 00:09:14;;;;;;;155.57;91.22;;;;;;;;;;5092853;28;20096;-75
2023/03/14 00:11:40;;;;;;;98.85;62.47;;;;;;;;;;5099332;28;20020;-74
2023/03/14 00:14:05;;;;;;;145.35;87.82;;;;;;;;;;5094439;28;20027;-76
2023/03/14 00:16:31;;;;;;;169.65;105.40;;;;;;;;;;5095401;28;20039;-75
2023/03/14 00:18:57;;;;;;;97.90;62.78;;;;;;;;;;5091633;28;20024;-74
2023/03/14 00:21:23;;;;;;;199.40;122.88;;;;;;;;;;5086713;28;20110;-76
2023/03/14 00:23:48;;;;;;;148.35;92.32;;;;;;;;;;5086045;28;20122;-76
2023/03/14 00:26:18;;;;;;;117.25;83.00;;;;;;;;;;5093344;28;20015;-75
2023/03/14 00:28:43;;;;;;;;;;;;;;;;;;5096417;28;20035;-75
2023/03/14 00:31:09;;;;;;;136.18;91.40;;;;;;;;;;5087120;28;19960;-75
2023/03/14 00:33:35;;;;;;;154.07;98.57;;;;;;;;;;5090667;28;20031;-75
2023/03/14 00:36:05;;;;;;;147.90;90.80;;;;;;;;;;5094025;28;20355;-75
2023/03/14 00:38:31;;;;;;;100.72;64.38;;;;;;;;;;5097542;28;20034;-75
2023/03/14 00:40:56;;;;;;;98.97;63.65;;;;;;;;;;5086832;28;20028;-75
2023/03/14 00:43:22;;;;;;;158.20;93.57;;;;;;;;;;5096713;28;20072;-75
2023/03/14 00:45:51;;;;;;;118.72;71.45;;;;;;;;;;5094290;28;20016;-75
2023/03/14 00:48:16;;;;;;;122.50;73.97;;;;;;;;;;5093681;28;20113;-75
2023/03/14 00:50:42;;;;;;;174.57;91.43;;;;;;;;;;5088065;28;20027;-75
2023/03/14 00:53:07;;;;;;;167.30;91.82;;;;;;;;;;5095546;28;20028;-77
2023/03/14 00:55:36;;;;;;;101.22;60.25;;;;;;;;;;5092183;28;20020;-76
2023/03/14 00:58:01;;;;;;;81.85;50.55;;;;;;;;;;5095839;28;20038;-76
2023/03/14 01:00:26;;;;;;;84.07;52.05;;;;;;;;;;5085685;28;20054;-76
2023/03/14 01:02:52;;;;;;;86.68;53.50;;;;;;;;;;5093563;28;20085;-75
2023/03/14 01:05:17;;;;;;;94.45;59.95;;;;;;;;;;5098049;28;20127;-76
2023/03/14 01:07:42;;;;;;;75.60;50.65;;;;;;;;;;5094234;28;20054;-77
2023/03/14 01:10:08;;;;;;;70.22;43.67;;;;;;;;;;5093509;28;20028;-77
2023/03/14 01:12:34;;;;;;;57.42;37.22;;;;;;;;;;5094976;28;20016;-75
2023/03/14 01:15:00;;;;;;;92.97;60.35;;;;;;;;;;5086889;28;20015;-75
2023/03/14 01:17:25;;;;;;;103.47;65.75;;;;;;;;;;5090913;28;20038;-75
2023/03/14 01:19:50;;;;;;;81.63;50.85;;;;;;;;;;5095051;28;20089;-75
2023/03/14 01:22:15;;;;;;;69.82;45.70;;;;;;;;;;5096850;28;20089;-75
2023/03/14 01:24:41;;;;;;;87.63;55.75;;;;;;;;;;5087453;28;20024;-75
2023/03/14 01:27:06;;;;;;;239.13;140.70;;;;;;;;;;5095612;28;20446;-75
2023/03/14 01:29:31;;;;;;;211.07;125.50;;;;;;;;;;5089999;28;20032;-75
2023/03/14 01:31:57;;;;;;;208.13;129.25;;;;;;;;;;5086113;28;20039;-75
2023/03/14 01:34:22;;;;;;;143.02;89.10;;;;;;;;;;5091029;28;20020;-75
2023/03/14 01:36:47;;;;;;;147.90;90.35;;;;;;;;;;5084004;28;21047;-75
2023/03/14 01:39:13;;;;;;;113.95;73.03;;;;;;;;;;5086671;28;20035;-75
2023/03/14 01:41:39;;;;;;;114.68;71.13;;;;;;;;;;5093872;28;20477;-75
2023/03/14 01:44:04;;;;;;;148.20;94.53;;;;;;;;;;5087255;28;20106;-75
2023/03/14 01:46:48;;;;;;;155.95;100.40;;;;;;;;;;5092532;28;20978;-74
2023/03/14 01:49:19;;;;;;;135.52;91.03;;;;;;;;;;5087159;28;20102;-75
2023/03/14 01:51:59;;;;;;;101.40;68.45;;;;;;;;;;5091839;28;20027;-75
2023/03/14 01:54:28;;;;;;;83.25;57.72;;;;;;;;;;5093616;28;20028;-76
2023/03/14 01:57:01;;;;;;;80.78;55.97;;;;;;;;;;5094334;28;20023;-75
2023/03/14 01:59:27;;;;;;;76.60;51.75;;;;;;;;;;5084223;28;20038;-75
2023/03/14 02:01:55;;;;;;;39.33;30.27;;;;;;;;;;5089976;28;20069;-75
2023/03/14 02:04:20;;;;;;;37.75;28.02;;;;;;;;;;5090060;28;20368;-75
2023/03/14 02:07:04;;;;;;;30.83;23.40;;;;;;;;;;5086617;28;20078;-75
2023/03/14 02:09:30;;;;;;;34.25;24.98;;;;;;;;;;5090542;28;20034;-76
2023/03/14 02:11:55;;;;;;;56.00;40.78;;;;;;;;;;5086767;28;20032;-74
2023/03/14 02:14:25;;;;;;;80.72;60.03;;;;;;;;;;5091505;28;20036;-74
2023/03/14 02:16:50;;;;;;;80.25;58.88;;;;;;;;;;5093107;28;20035;-74
2023/03/14 02:19:19;;;;;;;70.53;48.80;;;;;;;;;;5086781;28;20458;-73
2023/03/14 02:21:53;;;;;;;65.30;48.03;;;;;;;;;;5090951;28;20836;-74
2023/03/14 02:24:38;;;;;;;73.75;54.25;;;;;;;;;;5086453;28;20032;-73
2023/03/14 02:27:03;;;;;;;70.47;50.47;;;;;;;;;;5089190;28;20431;-73
2023/03/14 02:29:29;;;;;;;64.25;47.45;;;;;;;;;;5091628;28;20031;-74
2023/03/14 02:31:54;;;;;;;63.67;46.45;;;;;;;;;;5089563;28;20112;-73
2023/03/14 02:34:19;;;;;;;70.63;48.30;;;;;;;;;;5092017;28;20028;-73
2023/03/14 02:36:45;;;;;;;83.68;49.25;;;;;;;;;;5085354;28;20494;-73
2023/03/14 02:39:23;;;;;;;57.30;33.70;;;;;;;;;;5093483;28;20455;-74
2023/03/14 02:41:49;;;;;;;47.00;31.20;;;;;;;;;;5083531;28;20035;-73
2023/03/14 02:44:14;;;;;;;51.67;36.28;;;;;;;;;;5092401;28;20028;-73
2023/03/14 02:46:43;;;;;;;48.83;36.38;;;;;;;;;;5093266;28;20077;-75
2023/03/14 02:49:10;;;;;;;51.97;37.20;;;;;;;;;;5093826;28;20353;-73
2023/03/14 02:51:36;;;;;;;49.47;37.65;;;;;;;;;;5092692;28;20087;-75
2023/03/14 02:54:01;;;;;;;53.00;37.38;;;;;;;;;;5092177;28;20106;-74
2023/03/14 02:56:27;;;;;;;83.30;58.17;;;;;;;;;;5084126;28;20028;-74
2023/03/14 02:58:52;;;;;;;53.25;38.65;;;;;;;;;;5092435;28;20487;-74
2023/03/14 03:01:17;;;;;;;48.60;33.33;;;;;;;;;;5094505;28;20031;-74
2023/03/14 03:03:43;;;;;;;45.33;34.33;;;;;;;;;;5093197;28;20020;-75
2023/03/14 03:06:08;;;;;;;90.32;68.90;;;;;;;;;;5093912;28;20047;-74
2023/03/14 03:08:33;;;;;;;90.15;61.83;;;;;;;;;;5091470;28;20032;-74
2023/03/14 03:10:59;;;;;;;91.65;64.82;;;;;;;;;;5093258;28;20088;-74
2023/03/14 03:13:24;;;;;;;61.38;41.53;;;;;;;;;;5094927;28;20027;-74
2023/03/14 03:15:49;;;;;;;48.75;33.40;;;;;;;;;;5085420;28;20039;-74
2023/03/14 03:18:15;;;;;;;35.30;24.67;;;;;;;;;;5093275;28;20051;-74
2023/03/14 03:20:40;;;;;;;49.47;35.20;;;;;;;;;;5092978;28;20031;-74
2023/03/14 03:23:05;;;;;;;62.22;46.95;;;;;;;;;;5094288;28;20019;-74
2023/03/14 03:25:30;;;;;;;47.33;35.50;;;;;;;;;;5094874;28;20026;-75
2023/03/14 03:27:56;;;;;;;38.13;28.25;;;;;;;;;;5091309;28;20028;-74
2023/03/14 03:30:21;;;;;;;24.85;18.70;;;;;;;;;;5093768;28;20156;-75
2023/03/14 03:32:47;;;;;;;20.65;16.42;;;;;;;;;;5089640;28;20507;-75
2023/03/14 03:35:12;;;;;;;24.05;16.50;;;;;;;;;;5099056;28;20019;-75
2023/03/14 03:37:37;;;;;;;20.52;15.75;;;;;;;;;;5090935;28;20024;-75
2023/03/14 03:40:06;;;;;;;17.83;14.30;;;;;;;;;;5097720;28;20438;-75
2023/03/14 03:42:32;;;;;;;18.63;14.02;;;;;;;;;;5097515;28;20031;-74
2023/03/14 03:44:58;;;;;;;23.58;18.23;;;;;;;;;;5094427;28;20032;-75
2023/03/14 03:47:24;;;;;;;21.60;16.10;;;;;;;;;;5097638;28;20027;-75
2023/03/14 03:49:49;;;;;;;106.65;70.65;;;;;;;;;;5094464;28;20093;-76
2023/03/14 03:52:14;;;;;;;202.45;133.02;;;;;;;;;;5097741;28;20341;-74
2023/03/14 03:54:40;;;;;;;157.48;103.93;;;;;;;;;;5098098;28;20026;-73
2023/03/14 03:57:05;;;;;;;102.38;70.03;;;;;;;;;;5085695;28;20155;-73
2023/03/14 03:59:30;;;;;;;70.00;49.58;;;;;;;;;;5097963;28;20448;-73
2023/03/14 04:01:56;;;;;;;55.53;41.35;;;;;;;;;;5095599;28;20054;-74
2023/03/14 04:04:21;;;;;;;44.50;32.25;;;;;;;;;;5097063;28;20030;-73
2023/03/14 04:06:46;;;;;;;41.38;32.83;;;;;;;;;;5095750;28;20055;-74
2023/03/14 04:09:12;;;;;;;50.05;40.38;;;;;;;;;;5094745;28;20024;-73
2023/03/14 04:11:37;;;;;;;62.03;48.15;;;;;;;;;;5095816;28;20031;-73
2023/03/14 04:14:02;;;;;;;104.22;87.30;;;;;;;;;;5096802;28;20338;-74
2023/03/14 04:16:29;;;;;;;55.05;44.90;;;;;;;;;;5087060;28;21191;-74
2023/03/14 04:18:54;;;;;;;86.60;58.53;;;;;;;;;;5095128;28;20079;-73
2023/03/14 04:21:19;;;;;;;126.15;76.13;;;;;;;;;;5093661;27;20934;-73
2023/03/14 04:23:44;;;;;;;196.25;112.18;;;;;;;;;;5092243;28;20462;-74
2023/03/14 04:26:10;;;;;;;160.50;97.57;;;;;;;;;;5093521;28;20051;-73
2023/03/14 04:28:38;;;;;;;126.53;77.68;;;;;;;;;;5095621;27;20031;-74
2023/03/14 04:31:11;;;;;;;118.90;71.03;;;;;;;;;;5094209;28;20043;-74
2023/03/14 04:33:37;;;;;;;95.70;61.40;;;;;;;;;;5095428;28;20111;-74
2023/03/14 04:36:03;;;;;;;105.03;75.80;;;;;;;;;;5092524;28;20161;-73
2023/03/14 04:38:28;;;;;;;144.13;95.13;;;;;;;;;;5084836;28;20100;-73
2023/03/14 04:40:53;;;;;;;97.13;65.63;;;;;;;;;;5093009;28;20038;-73
2023/03/14 04:43:18;;;;;;;98.03;61.50;;;;;;;;;;5093621;28;20039;-73
2023/03/14 04:45:44;;;;;;;89.40;62.95;;;;;;;;;;5088898;28;21248;-73
2023/03/14 04:48:09;;;;;;;78.03;56.42;;;;;;;;;;5082436;28;20027;-74
2023/03/14 04:50:34;;;;;;;74.15;53.83;;;;;;;;;;5084148;28;20031;-73
2023/03/14 04:52:59;;;;;;;80.45;55.45;;;;;;;;;;5084836;28;20036;-73
2023/03/14 04:55:25;;;;;;;87.22;57.85;;;;;;;;;;5080888;28;20027;-74
2023/03/14 04:57:50;;;;;;;78.55;53.85;;;;;;;;;;5085226;28;20147;-75
2023/03/14 05:00:18;;;;;;;62.03;45.85;;;;;;;;;;5084645;28;20042;-74
2023/03/14 05:02:43;;;;;;;57.20;42.70;;;;;;;;;;5080892;28;20020;-74
2023/03/14 05:05:09;;;;;;;64.28;48.05;;;;;;;;;;5088326;28;20509;-73
2023/03/14 05:07:34;;;;;;;64.20;45.03;;;;;;;;;;5095057;28;20051;-74
2023/03/14 05:09:59;;;;;;;58.38;43.17;;;;;;;;;;5090704;28;20409;-73
2023/03/14 05:12:25;;;;;;;61.25;45.47;;;;;;;;;;5087629;28;20038;-73
2023/03/14 05:14:50;;;;;;;58.97;41.63;;;;;;;;;;5094284;28;20350;-74
2023/03/14 05:17:16;;;;;;;55.40;37.00;;;;;;;;;;5094489;28;20160;-73
2023/03/14 05:19:41;;;;;;;75.22;48.67;;;;;;;;;;5092453;28;20026;-73
2023/03/14 05:22:07;;;;;;;108.97;74.70;;;;;;;;;;5089328;28;20032;-74
2023/03/14 05:24:32;;;;;;;208.13;137.90;;;;;;;;;;5096453;28;20057;-76
2023/03/14 05:26:58;;;;;;;134.10;89.25;;;;;;;;;;5097474;28;20162;-77
2023/03/14 05:29:23;;;;;;;123.07;90.35;;;;;;;;;;5094990;28;20042;-78
2023/03/14 05:31:48;;;;;;;134.50;97.35;;;;;;;;;;5096585;28;20031;-76
2023/03/14 05:34:14;;;;;;;167.05;122.72;;;;;;;;;;5097069;28;20024;-77
2023/03/14 05:36:39;;;;;;;172.68;134.65;;;;;;;;;;5091573;28;20024;-76
2023/03/14 05:39:04;;;;;;;152.57;108.05;;;;;;;;;;5085679;28;20051;-75
2023/03/14 05:41:29;;;;;;;122.65;72.75;;;;;;;;;;5096240;28;20028;-77
2023/03/14 05:43:55;;;;;;;86.47;56.70;;;;;;;;;;5094020;28;20414;-75
2023/03/14 05:46:20;;;;;;;59.22;40.45;;;;;;;;;;5090945;28;20131;-79
2023/03/14 05:48:45;;;;;;;64.85;41.13;;;;;;;;;;5082772;28;20034;-77
2023/03/14 05:51:11;;;;;;;80.53;55.33;;;;;;;;;;5092386;28;20032;-78
2023/03/14 05:53:36;;;;;;;87.40;54.63;;;;;;;;;;5096017;28;20016;-77
2023/03/14 05:56:01;;;;;;;67.32;44.63;;;;;;;;;;5089370;28;20968;-75
2023/03/14 05:58:27;;;;;;;78.38;53.53;;;;;;;;;;5084330;28;20164;-76
2023/03/14 06:00:52;;;;;;;104.13;73.50;;;;;;;;;;5082879;28;20964;-75
2023/03/14 06:03:17;;;;;;;80.38;57.78;;;;;;;;;;5093588;28;20038;-76
2023/03/14 06:05:43;;;;;;;189.98;115.15;;;;;;;;;;5093793;28;20016;-76
2023/03/14 06:08:08;;;;;;;182.73;116.30;;;;;;;;;;5093831;28;20038;-78
2023/03/14 06:10:34;;;;;;;152.27;100.35;;;;;;;;;;5092629;28;20557;-77
2023/03/14 06:13:00;;;;;;;121.78;86.03;;;;;;;;;;5086922;28;20015;-76
2023/03/14 06:15:25;;;;;;;120.85;81.45;;;;;;;;;;5084398;28;20020;-75
2023/03/14 06:17:50;;;;;;;143.82;97.75;;;;;;;;;;5088381;28;20462;-75
2023/03/14 06:20:15;;;;;;;116.50;83.95;;;;;;;;;;5092915;28;20036;-76
2023/03/14 06:22:41;;;;;;;118.00;85.03;;;;;;;;;;5082393;28;20031;-78
2023/03/14 06:25:07;;;;;;;377.63;220.75;;;;;;;;;;5086558;28;20686;-76
2023/03/14 06:27:33;;;;;;;273.67;185.30;;;;;;;;;;5082343;28;20346;-78
2023/03/14 06:29:58;;;;;;;195.30;135.88;;;;;;;;;;5082191;28;20043;-78
2023/03/14 06:32:24;;;;;;;419.40;273.02;;;;;;;;;;5087478;28;20028;-77
2023/03/14 06:34:49;;;;;;;264.23;184.07;;;;;;;;;;5096051;28;20369;-78
2023/03/14 06:37:14;;;;;;;435.40;327.38;;;;;;;;;;5089944;28;20110;-77
2023/03/14 06:39:40;;;;;;;363.67;264.67;;;;;;;;;;5096009;28;20040;-81
2023/03/14 06:42:05;;;;;;;121.47;90.93;;;;;;;;;;5094300;28;20024;-77
2023/03/14 06:44:31;;;;;;;127.88;102.63;;;;;;;;;;5090719;28;20462;-78
2023/03/14 06:46:56;;;;;;;131.77;103.40;;;;;;;;;;5092469;28;20027;-81
2023/03/14 06:49:21;;;;;;;98.65;78.10;;;;;;;;;;5089481;28;20059;-80
2023/03/14 06:51:47;;;;;;;96.78;76.72;;;;;;;;;;5090858;28;20076;-80
2023/03/14 06:54:12;;;;;;;113.00;93.63;;;;;;;;;;5088615;28;20027;-81
2023/03/14 06:56:38;;;;;;;88.35;70.05;;;;;;;;;;5091974;28;20034;-79
2023/03/14 06:59:03;;;;;;;82.28;65.65;;;;;;;;;;5090490;28;20387;-80
2023/03/14 07:01:29;;;;;;;76.68;61.15;;;;;;;;;;5094323;28;20078;-79
2023/03/14 07:03:54;;;;;;;95.07;75.90;;;;;;;;;;5094785;28;20028;-81
2023/03/14 07:06:20;;;;;;;134.15;106.75;;;;;;;;;;5093302;28;20074;-81
2023/03/14 07:08:45;;;;;;;96.32;80.18;;;;;;;;;;5093578;28;20038;-78
2023/03/14 07:11:12;;;;;;;67.47;56.05;;;;;;;;;;5098796;28;20369;-80
2023/03/14 07:13:38;;;;;;;69.72;55.17;;;;;;;;;;5099025;27;20144;-81
2023/03/14 07:16:03;;;;;;;65.60;54.25;;;;;;;;;;5100524;28;20028;-80
2023/03/14 07:18:29;;;;;;;69.63;53.80;;;;;;;;;;5100023;27;20543;-81
2023/03/14 07:20:54;;;;;;;94.00;70.00;;;;;;;;;;5101496;28;20248;-79
2023/03/14 07:23:19;;;;;;;120.75;86.95;;;;;;;;;;5111924;28;20070;-78
2023/03/14 07:25:45;;;;;;;107.93;78.43;;;;;;;;;;5107014;28;20062;-80
2023/03/14 07:28:10;;;;;;;103.80;74.97;;;;;;;;;;5100106;27;20624;-81
2023/03/14 07:30:35;;;;;;;67.78;51.17;;;;;;;;;;5099338;28;20024;-80
2023/03/14 07:33:01;;;;;;;43.90;34.22;;;;;;;;;;5095552;28;20081;-80
2023/03/14 07:35:26;;;;;;;49.13;32.63;;;;;;;;;;5097904;28;20364;-79
2023/03/14 07:37:51;;;;;;;30.92;23.05;;;;;;;;;;5098905;28;20111;-78
2023/03/14 07:40:17;;;;;;;31.85;21.85;;;;;;;;;;5100103;28;20099;-81
2023/03/14 07:42:42;;;;;;;28.75;20.92;;;;;;;;;;5097539;28;20027;-79
2023/03/14 07:45:09;;;;;;;44.50;31.20;;;;;;;;;;5098170;28;20036;-79
2023/03/14 07:47:34;;;;;;;32.72;22.48;;;;;;;;;;5095890;28;20036;-81
2023/03/14 07:50:00;;;;;;;30.90;22.38;;;;;;;;;;5100130;28;20027;-80
2023/03/14 07:52:25;;;;;;;37.10;27.77;;;;;;;;;;5098792;28;20442;-81
2023/03/14 07:54:50;;;;;;;27.20;21.40;;;;;;;;;;5096985;28;20035;-79
2023/03/14 07:57:16;;;;;;;24.05;19.73;;;;;;;;;;5097623;28;20413;-81
2023/03/14 07:59:41;;;;;;;50.15;35.40;;;;;;;;;;5098413;28;20059;-78
2023/03/14 08:02:11;;;;;;;37.72;26.90;;;;;;;;;;5098553;28;20032;-80
2023/03/14 08:04:36;;;;;;;;;;;;;;;;;;5096602;28;20354;-79
2023/03/14 08:07:02;;;;;;;30.05;22.58;;;;;;;;;;5096857;27;19915;-81
2023/03/14 08:09:28;;;;;;;29.75;24.40;;;;;;;;;;5098554;28;20439;-78
2023/03/14 08:11:53;;;;;;;28.48;23.23;;;;;;;;;;5098823;28;20043;-77
2023/03/14 08:14:18;;;;;;;38.10;29.15;;;;;;;;;;5100082;28;20024;-81
2023/03/14 08:16:44;;;;;;;34.65;24.23;;;;;;;;;;5097913;28;20446;-80
2023/03/14 08:19:09;;;;;;;58.45;42.25;;;;;;;;;;5095962;28;20043;-79
2023/03/14 08:21:34;;;;;;;28.33;23.45;;;;;;;;;;5094265;28;20036;-78
2023/03/14 08:24:00;;;;;;;33.83;27.38;;;;;;;;;;5096250;28;20016;-80
2023/03/14 08:26:25;;;;;;;32.50;25.48;;;;;;;;;;5097093;28;20023;-78
2023/03/14 08:28:51;;;;;;;31.95;24.58;;;;;;;;;;5094168;28;20034;-75
2023/03/14 08:31:16;;;;;;;27.77;21.30;;;;;;;;;;5096222;28;20698;-80
2023/03/14 08:33:41;;;;;;;19.13;15.88;;;;;;;;;;5098336;28;20473;-79
2023/03/14 08:36:07;;;;;;;31.00;23.48;;;;;;;;;;5095821;28;20023;-78
2023/03/14 08:38:32;;;;;;;84.30;66.10;;;;;;;;;;5097247;28;20026;-78
2023/03/14 08:40:58;;;;;;;19.67;16.40;;;;;;;;;;5092973;28;20483;-78
2023/03/14 08:43:23;;;;;;;28.73;23.55;;;;;;;;;;5096771;28;20724;-78
2023/03/14 08:45:49;;;;;;;23.90;17.80;;;;;;;;;;5096586;28;20069;-78
2023/03/14 08:48:14;;;;;;;21.60;19.02;;;;;;;;;;5089943;28;20051;-77
2023/03/14 08:50:39;;;;;;;22.05;19.02;;;;;;;;;;5085590;27;20027;-74
2023/03/14 08:53:05;;;;;;;18.10;14.70;;;;;;;;;;5080938;28;20019;-75
2023/03/14 08:55:30;;;;;;;25.38;20.48;;;;;;;;;;5081005;28;20088;-77
2023/03/14 08:57:55;;;;;;;16.65;14.15;;;;;;;;;;5084718;28;20022;-80
2023/03/14 09:00:21;;;;;;;22.75;18.85;;;;;;;;;;5085174;28;20031;-79
2023/03/14 09:02:46;;;;;;;14.38;12.25;;;;;;;;;;5087589;28;20799;-79
2023/03/14 09:05:12;;;;;;;15.25;11.75;;;;;;;;;;5086081;28;20032;-77
2023/03/14 09:07:37;;;;;;;19.35;14.82;;;;;;;;;;5086411;28;20046;-78
2023/03/14 09:10:03;;;;;;;26.17;19.90;;;;;;;;;;5086537;28;20023;-77
2023/03/14 09:12:28;;;;;;;127.80;98.22;;;;;;;;;;5085370;28;20028;-77
2023/03/14 09:14:54;;;;;;;22.55;18.40;;;;;;;;;;5085125;28;20076;-78
2023/03/14 09:17:19;;;;;;;28.75;22.00;;;;;;;;;;5086248;28;20141;-77
2023/03/14 09:19:44;;;;;;;28.90;22.45;;;;;;;;;;5084199;28;20109;-79
2023/03/14 09:22:09;;;;;;;15.85;13.18;;;;;;;;;;5083816;28;20091;-78
2023/03/14 09:24:35;;;;;;;11.75;9.80;;;;;;;;;;5085860;28;20050;-79
2023/03/14 09:27:00;;;;;;;20.17;16.20;;;;;;;;;;5084195;28;20020;-78
2023/03/14 09:29:25;;;;;;;27.63;21.63;;;;;;;;;;5085334;28;20051;-78
2023/03/14 09:31:51;;;;;;;24.15;21.75;;;;;;;;;;5084990;28;20027;-78
2023/03/14 09:34:16;;;;;;;12.57;10.98;;;;;;;;;;5085318;28;20887;-77
2023/03/14 09:36:44;;;;;;;21.52;18.92;;;;;;;;;;5086283;28;20025;-78
2023/03/14 09:39:09;;;;;;;38.55;28.10;;;;;;;;;;5080037;28;20100;-78
2023/03/14 09:41:36;;;;;;;14.00;12.50;;;;;;;;;;5081554;28;20035;-78
2023/03/14 09:44:06;;;;;;;8.70;7.50;;;;;;;;;;5085946;27;20047;-80
2023/03/14 09:46:33;;;;;;;10.23;9.23;;;;;;;;;;5083795;28;20126;-77
2023/03/14 09:48:59;;;;;;;35.03;28.10;;;;;;;;;;5084406;28;20039;-77
2023/03/14 09:51:25;;;;;;;17.60;14.63;;;;;;;;;;5083521;28;20031;-74
2023/03/14 09:53:51;;;;;;;18.38;14.52;;;;;;;;;;5089382;28;20837;-78
2023/03/14 09:56:19;;;;;;;15.45;13.27;;;;;;;;;;5088960;28;20310;-77
2023/03/14 09:58:47;;;;;;;16.17;12.80;;;;;;;;;;5084600;28;20351;-77
2023/03/14 10:01:15;;;;;;;14.07;12.20;;;;;;;;;;5083191;28;20084;-79
2023/03/14 10:03:42;;;;;;;11.20;9.10;;;;;;;;;;5082847;28;20080;-78
2023/03/14 10:06:11;;;;;;;12.27;10.30;;;;;;;;;;5083699;28;20486;-76
2023/03/14 10:08:39;;;;;;;13.75;12.32;;;;;;;;;;5083035;28;20069;-76
2023/03/14 10:11:04;;;;;;;9.98;8.75;;;;;;;;;;5084597;28;20024;-79
2023/03/14 10:13:31;;;;;;;12.52;11.20;;;;;;;;;;5082919;28;20136;-77
2023/03/14 10:16:08;;;;;;;14.38;12.93;;;;;;;;;;5084348;28;20055;-76
2023/03/14 10:18:34;;;;;;;14.55;11.63;;;;;;;;;;5082790;28;20548;-77
2023/03/14 10:21:07;;;;;;;11.35;9.68;;;;;;;;;;5084121;28;20024;-78
2023/03/14 10:23:33;;;;;;;13.20;11.93;;;;;;;;;;5083259;28;20024;-78
2023/03/14 10:26:02;;;;;;;11.15;10.10;;;;;;;;;;5084157;28;20030;-78
2023/03/14 10:28:29;;;;;;;16.17;14.65;;;;;;;;;;5082818;28;20454;-78
2023/03/14 10:30:55;;;;;;;12.70;10.77;;;;;;;;;;5084529;28;20118;-76
2023/03/14 10:33:22;;;;;;;11.30;9.60;;;;;;;;;;5084642;28;20407;-81
2023/03/14 10:35:58;;;;;;;11.50;10.30;;;;;;;;;;5082925;28;20114;-79
2023/03/14 10:38:26;;;;;;;10.38;9.15;;;;;;;;;;5083221;28;20084;-79
2023/03/14 10:40:52;;;;;;;8.35;7.43;;;;;;;;;;5083792;28;20093;-79
2023/03/14 10:43:38;;;;;;;8.35;7.40;;;;;;;;;;5084945;28;20078;-79
2023/03/14 10:46:17;;;;;;;13.30;11.32;;;;;;;;;;5088346;28;21116;-78
2023/03/14 10:48:42;;;;;;;9.63;8.63;;;;;;;;;;5087396;28;20066;-79
2023/03/14 10:51:07;;;;;;;9.52;8.63;;;;;;;;;;5087213;28;20043;-80
2023/03/14 10:53:44;;;;;;;7.93;7.13;;;;;;;;;;5087680;28;20023;-79
2023/03/14 10:56:13;;;;;;;7.72;6.93;;;;;;;;;;5086493;28;20020;-79
2023/03/14 10:58:41;;;;;;;9.80;7.47;;;;;;;;;;5087625;27;20044;-81
2023/03/14 11:01:14;;;;;;;8.25;7.40;;;;;;;;;;5086757;28;20015;-79
2023/03/14 11:03:42;;;;;;;10.18;9.18;;;;;;;;;;5088341;28;20023;-78
2023/03/14 11:06:19;;;;;;;8.50;7.60;;;;;;;;;;5086944;28;20086;-76
2023/03/14 11:08:48;;;;;;;8.38;6.85;;;;;;;;;;5087286;28;20450;-78
2023/03/14 11:11:13;;;;;;;8.70;7.75;;;;;;;;;;5086664;28;20027;-77
2023/03/14 11:13:52;;;;;;;11.75;9.25;;;;;;;;;;5086966;28;20025;-78
2023/03/14 11:16:30;;;;;;;15.70;13.82;;;;;;;;;;5086405;28;20035;-78
2023/03/14 11:19:20;;;;;;;24.70;17.10;;;;;;;;;;5086895;28;20043;-77
2023/03/14 11:21:57;;;;;;;14.65;12.73;;;;;;;;;;5086698;28;20039;-78
2023/03/14 11:24:32;;;;;;;9.10;8.18;;;;;;;;;;5086249;28;20874;-78
2023/03/14 11:27:16;;;;;;;14.77;11.32;;;;;;;;;;5082873;28;20054;-76
2023/03/14 11:30:02;;;;;;;11.05;9.93;;;;;;;;;;5086785;28;20108;-78
2023/03/14 11:32:41;;;;;;;8.10;7.25;;;;;;;;;;5086574;28;20366;-77
2023/03/14 11:35:17;;;;;;;12.02;10.55;;;;;;;;;;5085196;28;20553;-80
2023/03/14 11:38:05;;;;;;;12.52;10.82;;;;;;;;;;5085995;28;20102;-78
2023/03/14 11:40:31;;;;;;;8.80;7.90;;;;;;;;;;5085234;28;20340;-79
2023/03/14 11:43:09;;;;;;;15.75;14.27;;;;;;;;;;5086991;28;20019;-79
2023/03/14 11:45:42;;;;;;;30.77;27.70;;;;;;;;;;5086721;28;20458;-78
2023/03/14 11:48:26;;;;;;;10.48;9.38;;;;;;;;;;5093114;28;20038;-80
2023/03/14 11:50:52;;;;;;;22.83;20.58;;;;;;;;;;5099968;28;20350;-79
2023/03/14 11:53:18;;;;;;;10.57;9.23;;;;;;;;;;5098391;28;20043;-76
2023/03/14 11:55:44;;;;;;;12.97;11.47;;;;;;;;;;5096013;28;20495;-79
2023/03/14 11:58:15;;;;;;;9.80;8.80;;;;;;;;;;5098545;28;20897;-80
2023/03/14 12:00:41;;;;;;;21.90;16.55;;;;;;;;;;5099426;28;20841;-78
2023/03/14 12:03:13;;;;;;;11.48;9.50;;;;;;;;;;5098364;28;20454;-83
2023/03/14 12:05:57;;;;;;;7.40;6.18;;;;;;;;;;5098046;28;20024;-80
2023/03/14 12:08:34;;;;;;;10.85;8.98;;;;;;;;;;5096037;28;20032;-82
2023/03/14 12:11:05;;;;;;;17.70;14.90;;;;;;;;;;5097046;28;20028;-82
2023/03/14 12:13:33;;;;;;;20.63;18.25;;;;;;;;;;5101315;28;21244;-84
2023/03/14 12:16:00;;;;;;;17.20;15.40;;;;;;;;;;5098371;28;20034;-82
2023/03/14 12:18:38;;;;;;;20.08;18.00;;;;;;;;;;5099126;28;20311;-82
2023/03/14 12:21:05;;;;;;;10.30;9.20;;;;;;;;;;5096889;28;20019;-80
2023/03/14 12:23:36;;;;;;;14.13;12.70;;;;;;;;;;5098362;28;21058;-83
2023/03/14 12:26:08;;;;;;;14.00;11.77;;;;;;;;;;5099549;28;20027;-80
2023/03/14 12:28:33;;;;;;;12.77;9.75;;;;;;;;;;5097423;28;20046;-83
2023/03/14 12:31:18;;;;;;;14.15;8.82;;;;;;;;;;5100227;28;20441;-82
2023/03/14 12:33:44;;;;;;;8.93;7.72;;;;;;;;;;5102535;28;20096;-81
2023/03/14 12:36:19;;;;;;;13.75;11.68;;;;;;;;;;5101019;28;20419;-79
2023/03/14 12:38:44;;;;;;;12.45;10.27;;;;;;;;;;5100755;28;20110;-77
2023/03/14 12:41:14;;;;;;;13.02;11.07;;;;;;;;;;5097728;28;20123;-79
2023/03/14 12:43:40;;;;;;;18.88;16.33;;;;;;;;;;5096952;28;20065;-79
2023/03/14 12:46:17;;;;;;;16.00;14.10;;;;;;;;;;5099488;28;20028;-80
2023/03/14 12:48:50;;;;;;;13.95;12.35;;;;;;;;;;5097475;28;20039;-80
2023/03/14 12:51:19;;;;;;;12.45;9.15;;;;;;;;;;5099636;28;20027;-82
2023/03/14 12:53:53;;;;;;;14.65;13.13;;;;;;;;;;5098006;28;20023;-79
2023/03/14 12:56:25;;;;;;;13.48;10.68;;;;;;;;;;5096388;28;20328;-85
2023/03/14 12:59:05;;;;;;;14.95;13.10;;;;;;;;;;5096359;28;20031;-83
2023/03/14 13:01:32;;;;;;;29.52;22.63;;;;;;;;;;5098455;28;20031;-81
2023/03/14 13:04:02;;;;;;;14.23;12.68;;;;;;;;;;5095227;28;20032;-78
2023/03/14 13:06:45;;;;;;;9.07;7.88;;;;;;;;;;5095669;28;20050;-84
2023/03/14 13:09:29;;;;;;;18.88;14.02;;;;;;;;;;5097658;28;20015;-84
2023/03/14 13:12:01;;;;;;;15.07;12.40;;;;;;;;;;5095164;28;20030;-84
2023/03/14 13:14:28;;;;;;;18.77;15.35;;;;;;;;;;5098748;28;20060;-81
2023/03/14 13:16:53;;;;;;;29.40;25.73;;;;;;;;;;5099703;28;20024;-82
2023/03/14 13:19:20;;;;;;;18.42;13.75;;;;;;;;;;5099169;28;20139;-83
2023/03/14 13:21:45;;;;;;;12.23;9.48;;;;;;;;;;5097268;28;20020;-84
2023/03/14 13:24:24;;;;;;;18.50;14.48;;;;;;;;;;5097192;28;20035;-83
2023/03/14 13:26:51;;;;;;;17.58;14.23;;;;;;;;;;5096957;28;20024;-82
2023/03/14 13:29:19;;;;;;;13.98;11.07;;;;;;;;;;5096615;28;20115;-84
2023/03/14 13:31:49;;;;;;;14.43;11.30;;;;;;;;;;5097236;28;20343;-81
2023/03/14 13:34:14;;;;;;;20.77;15.68;;;;;;;;;;5098549;28;20438;-82
2023/03/14 13:36:40;;;;;;;21.67;17.10;;;;;;;;;;5098745;28;20023;-82
2023/03/14 13:39:12;;;;;;;23.38;15.85;;;;;;;;;;5098083;28;20063;-80
2023/03/14 13:41:38;;;;;;;17.88;14.07;;;;;;;;;;5094579;28;20462;-81
2023/03/14 13:44:17;;;;;;;17.58;13.32;;;;;;;;;;5097800;28;20078;-83
2023/03/14 13:46:42;;;;;;;;;;;;;;;;;;5092539;28;20046;-83
2023/03/14 13:49:12;;;;;;;23.55;16.85;;;;;;;;;;5096978;28;20685;-82
2023/03/14 13:51:38;;;;;;;33.03;24.48;;;;;;;;;;5095704;28;20066;-86
2023/03/14 13:54:12;;;;;;;15.05;13.45;;;;;;;;;;5096836;28;20015;-83
2023/03/14 13:56:38;;;;;;;20.88;17.08;;;;;;;;;;5096206;28;20034;-83
2023/03/14 13:59:03;;;;;;;12.70;11.07;;;;;;;;;;5098125;28;20032;-82
2023/03/14 14:01:37;;;;;;;13.98;11.65;;;;;;;;;;5097900;28;20115;-82
2023/03/14 14:04:06;;;;;;;9.57;8.55;;;;;;;;;;5094418;28;20823;-80
2023/03/14 14:06:31;;;;;;;;;;;;;;;;;;5098998;28;20116;-79
2023/03/14 14:08:59;;;;;;;9.80;8.80;;;;;;;;;;5094845;28;20326;-83
2023/03/14 14:12:04;;;;;;;15.48;13.13;;;;;;;;;;5099390;28;20301;-80
2023/03/14 14:14:59;;;;;;;27.13;19.55;;;;;;;;;;5037302;28;20098;-79
2023/03/14 14:17:28;;;;;;;45.80;28.80;;;;;;;;;;5014933;28;20146;-80
2023/03/14 14:19:53;;;;;;;38.50;27.02;;;;;;;;;;5030156;28;20080;-78